Time;durP1;ratioP1;P1;durP2;ratioP2;P2;SDS_P1;SDS_P2;PMS_P1;PMS_P2;Temp;Humidity;BMP_temperature;BMP_pressure;BME280_temperature;BME280_humidity;BME280_pressure;Samples;Min_cycle;Max_cycle;Signal;HPM_P1;HPM_P2
2021/12/06 00:01:21;;;;;;;54.05;33.20;;;179.50;2252.80;;;;;;5033703;28;20066;-72
2021/12/06 00:03:52;;;;;;;56.50;35.60;;;179.60;2252.80;;;;;;5014269;28;20056;-73
2021/12/06 00:06:20;;;;;;;58.72;36.88;;;179.60;2252.80;;;;;;5027816;28;20079;-73
2021/12/06 00:08:46;;;;;;;52.08;33.65;;;179.50;2252.80;;;;;;5033605;28;20506;-73
2021/12/06 00:11:14;;;;;;;45.92;30.85;;;179.60;2252.80;;;;;;5033541;28;20021;-73
2021/12/06 00:13:43;;;;;;;42.70;27.83;;;179.60;2252.80;;;;;;5033838;28;20545;-72
2021/12/06 00:16:14;;;;;;;43.42;26.27;;;179.50;2252.80;;;;;;5052140;28;20071;-73
2021/12/06 00:18:41;;;;;;;40.38;24.58;;;179.50;2252.80;;;;;;5042013;28;20028;-74
2021/12/06 00:21:08;;;;;;;43.22;25.98;;;179.50;2252.80;;;;;;5035537;28;20028;-74
2021/12/06 00:23:34;;;;;;;35.78;23.70;;;179.40;2252.80;;;;;;5049277;28;20072;-74
2021/12/06 00:26:01;;;;;;;40.58;23.52;;;179.50;2252.80;;;;;;5050440;28;20074;-74
2021/12/06 00:28:27;;;;;;;42.97;23.70;;;179.50;2252.80;;;;;;5053829;28;20029;-75
2021/12/06 00:30:54;;;;;;;36.88;23.20;;;179.60;2252.80;;;;;;5049706;28;20025;-74
2021/12/06 00:33:21;;;;;;;41.80;24.15;;;179.60;2252.80;;;;;;5040765;28;20026;-74
2021/12/06 00:35:47;;;;;;;43.53;25.33;;;179.50;2252.80;;;;;;5024075;28;20030;-74
2021/12/06 00:38:13;;;;;;;45.35;25.65;;;179.50;2252.80;;;;;;5054276;28;20028;-74
2021/12/06 00:40:46;;;;;;;44.35;25.80;;;179.40;2252.80;;;;;;5055111;28;20380;-74
2021/12/06 00:43:13;;;;;;;42.80;27.00;;;179.40;2252.80;;;;;;5034092;28;20053;-74
2021/12/06 00:45:39;;;;;;;41.63;23.58;;;179.50;2252.80;;;;;;5017409;28;20029;-74
2021/12/06 00:48:05;;;;;;;43.78;25.45;;;179.40;2252.80;;;;;;5034471;28;20033;-73
2021/12/06 00:50:33;;;;;;;40.92;24.90;;;179.50;2252.80;;;;;;5054936;28;20444;-74
2021/12/06 00:52:59;;;;;;;37.50;23.08;;;179.50;2252.80;;;;;;5055151;28;20025;-73
2021/12/06 00:55:25;;;;;;;43.55;26.85;;;179.50;2252.80;;;;;;5054598;28;20029;-73
2021/12/06 00:57:54;;;;;;;45.83;30.67;;;179.60;2252.80;;;;;;5054539;28;20031;-73
2021/12/06 01:00:24;;;;;;;48.58;27.20;;;179.60;2252.80;;;;;;5036710;28;20037;-74
2021/12/06 01:02:51;;;;;;;49.75;28.98;;;179.60;2252.80;;;;;;5035926;28;20041;-74
2021/12/06 01:05:16;;;;;;;47.70;30.80;;;179.60;2252.80;;;;;;5054813;28;20032;-73
2021/12/06 01:07:43;;;;;;;48.22;31.35;;;179.60;2252.80;;;;;;5054501;28;20025;-74
2021/12/06 01:10:10;;;;;;;48.22;31.33;;;179.50;2252.80;;;;;;5036835;28;20024;-72
2021/12/06 01:12:36;;;;;;;59.13;33.75;;;179.40;2252.80;;;;;;5054064;28;20442;-72
2021/12/06 01:15:04;;;;;;;51.20;33.50;;;179.30;2252.80;;;;;;5054663;28;20560;-72
2021/12/06 01:17:30;;;;;;;54.53;33.92;;;179.30;2252.80;;;;;;5054150;28;20025;-72
2021/12/06 01:19:56;;;;;;;62.25;38.13;;;179.30;2252.80;;;;;;5054047;28;20109;-72
2021/12/06 01:25:02;;;;;;;70.00;43.20;;;154.40;2252.80;;;;;;5054269;28;20021;-72
2021/12/06 01:28:13;;;;;;;66.50;42.97;;;154.50;2252.80;;;;;;5053902;28;20021;-71
2021/12/06 01:40:55;;;;;;;67.60;37.45;;;154.30;2252.80;;;;;;5054231;28;20035;-71
2021/12/06 01:43:21;;;;;;;55.15;33.47;;;154.20;2252.80;;;;;;5035977;28;20021;-71
2021/12/06 01:45:47;;;;;;;57.28;32.65;;;154.30;2252.80;;;;;;5035766;28;20013;-71
2021/12/06 01:48:13;;;;;;;53.45;31.42;;;154.30;2252.80;;;;;;5053474;28;20108;-70
2021/12/06 01:50:38;;;;;;;55.03;32.05;;;154.20;2252.80;;;;;;5053837;28;20025;-71
2021/12/06 01:53:06;;;;;;;52.60;32.42;;;154.20;2252.80;;;;;;5053459;28;20100;-71
2021/12/06 01:55:38;;;;;;;50.65;29.70;;;154.20;2252.80;;;;;;5053794;28;20060;-71
2021/12/06 01:58:06;;;;;;;54.65;27.83;;;154.10;2252.80;;;;;;5047531;28;20370;-71
2021/12/06 02:00:44;;;;;;;48.97;27.98;;;154.10;2252.80;;;;;;5053449;28;20032;-71
2021/12/06 02:03:10;;;;;;;40.38;24.45;;;154.10;2252.80;;;;;;5053325;28;20029;-72
2021/12/06 02:05:37;;;;;;;46.50;26.40;;;154.00;2252.80;;;;;;5035776;28;20024;-71
2021/12/06 02:08:04;;;;;;;45.83;26.00;;;154.00;2252.80;;;;;;5053892;28;20040;-71
2021/12/06 02:10:30;;;;;;;48.20;27.08;;;154.00;2252.80;;;;;;5053348;28;20045;-72
2021/12/06 02:12:56;;;;;;;52.58;31.13;;;153.90;2252.80;;;;;;5035620;28;20072;-71
2021/12/06 02:18:11;;;;;;;69.43;38.97;;;154.10;2252.80;;;;;;5053428;28;20025;-71
2021/12/06 02:20:46;;;;;;;57.85;37.92;;;154.00;2252.80;;;;;;5035582;28;20049;-71
2021/12/06 02:23:13;;;;;;;89.30;41.92;;;154.10;2252.80;;;;;;5053175;28;20101;-72
2021/12/06 02:25:39;;;;;;;100.70;47.50;;;154.00;2252.80;;;;;;5053309;28;20036;-72
2021/12/06 02:28:06;;;;;;;94.47;49.13;;;154.00;2252.80;;;;;;5034894;28;20112;-73
2021/12/06 02:30:32;;;;;;;119.95;55.22;;;154.00;2252.80;;;;;;5035309;28;20025;-72
2021/12/06 02:32:59;;;;;;;113.40;55.10;;;154.10;2252.80;;;;;;5035117;28;20037;-72
2021/12/06 02:35:25;;;;;;;113.68;58.30;;;154.10;2252.80;;;;;;5052955;28;20029;-71
2021/12/06 02:37:52;;;;;;;110.97;57.47;;;154.10;2252.80;;;;;;5052263;28;20035;-72
2021/12/06 02:40:26;;;;;;;114.90;58.83;;;154.10;2252.80;;;;;;5034739;28;20128;-71
2021/12/06 02:42:53;;;;;;;121.93;62.85;;;154.20;2252.80;;;;;;5052607;28;20021;-72
2021/12/06 02:45:20;;;;;;;129.50;63.80;;;154.20;2252.80;;;;;;5052719;28;20032;-71
2021/12/06 02:47:52;;;;;;;119.45;63.22;;;154.20;2252.80;;;;;;5034886;28;20475;-72
2021/12/06 02:50:19;;;;;;;135.40;66.90;;;154.20;2252.80;;;;;;5034728;28;20025;-71
2021/12/06 02:52:45;;;;;;;127.68;66.75;;;154.20;2252.80;;;;;;5052585;28;20029;-72
2021/12/06 02:55:29;;;;;;;119.20;63.67;;;154.20;2252.80;;;;;;5052784;28;20028;-72
2021/12/06 02:57:58;;;;;;;124.75;65.93;;;154.20;2252.80;;;;;;5034534;28;20392;-72
2021/12/06 03:00:25;;;;;;;121.55;65.18;;;154.20;2252.80;;;;;;5052424;28;20028;-72
2021/12/06 03:02:51;;;;;;;124.78;69.05;;;154.20;2252.80;;;;;;5052250;28;20391;-72
2021/12/06 03:05:17;;;;;;;127.85;63.80;;;154.20;2252.80;;;;;;5052624;28;20104;-72
2021/12/06 03:07:46;;;;;;;122.55;64.07;;;154.20;2252.80;;;;;;5052359;28;20021;-72
2021/12/06 03:10:14;;;;;;;105.80;59.38;;;154.20;2252.80;;;;;;5034397;28;20067;-72
2021/12/06 03:12:40;;;;;;;107.18;58.83;;;154.20;2252.80;;;;;;5034545;28;20475;-72
2021/12/06 03:15:06;;;;;;;110.72;59.75;;;154.20;2252.80;;;;;;5034268;28;20029;-72
2021/12/06 03:17:33;;;;;;;116.70;60.97;;;154.30;2252.80;;;;;;5052346;28;20027;-72
2021/12/06 03:20:00;;;;;;;110.90;59.85;;;154.20;2252.80;;;;;;5052053;28;20051;-72
2021/12/06 03:22:26;;;;;;;109.68;59.75;;;154.20;2252.80;;;;;;5034247;28;20028;-71
2021/12/06 03:24:53;;;;;;;119.07;61.55;;;154.20;2252.80;;;;;;5033973;28;20039;-72
2021/12/06 03:27:19;;;;;;;111.75;57.20;;;154.20;2252.80;;;;;;5034172;28;20037;-71
2021/12/06 03:29:45;;;;;;;107.25;58.67;;;154.20;2252.80;;;;;;5051352;28;20456;-72
2021/12/06 03:32:12;;;;;;;123.10;60.83;;;154.20;2252.80;;;;;;5051606;28;20052;-71
2021/12/06 03:34:38;;;;;;;110.78;56.65;;;154.20;2252.80;;;;;;5052149;28;20075;-72
2021/12/06 03:37:06;;;;;;;112.57;58.40;;;154.10;2252.80;;;;;;5051474;28;20025;-72
2021/12/06 03:39:39;;;;;;;120.13;57.17;;;154.10;2252.80;;;;;;5051689;28;20749;-72
2021/12/06 03:42:07;;;;;;;108.28;55.13;;;154.10;2252.80;;;;;;5033542;28;20037;-71
2021/12/06 03:44:33;;;;;;;99.95;53.08;;;154.10;2252.80;;;;;;5051975;28;20036;-72
2021/12/06 03:47:07;;;;;;;94.55;50.53;;;154.10;2252.80;;;;;;5051604;28;20386;-71
2021/12/06 03:49:33;;;;;;;92.20;45.22;;;154.10;2252.80;;;;;;5051372;28;20035;-71
2021/12/06 03:51:59;;;;;;;81.53;42.80;;;154.00;2252.80;;;;;;5051684;28;20033;-71
2021/12/06 03:54:26;;;;;;;88.95;43.60;;;154.00;2252.80;;;;;;5051305;28;20488;-71
2021/12/06 03:56:53;;;;;;;79.32;39.80;;;153.90;2252.80;;;;;;5051855;28;20032;-72
2021/12/06 03:59:19;;;;;;;81.50;39.25;;;153.90;2252.80;;;;;;5033383;28;20055;-72
2021/12/06 04:01:47;;;;;;;82.63;41.30;;;153.80;2252.80;;;;;;5033627;28;20094;-72
2021/12/06 04:04:13;;;;;;;88.90;39.95;;;153.80;2252.80;;;;;;5033422;28;20048;-72
2021/12/06 04:06:40;;;;;;;74.03;39.42;;;153.70;2252.80;;;;;;5051921;28;20467;-71
2021/12/06 04:09:08;;;;;;;82.72;39.53;;;153.60;2252.80;;;;;;5033685;28;20098;-71
2021/12/06 04:11:34;;;;;;;74.72;40.85;;;153.60;2252.80;;;;;;5051090;28;20113;-72
2021/12/06 04:14:01;;;;;;;77.47;36.85;;;153.60;2252.80;;;;;;5033898;28;20071;-71
2021/12/06 04:16:27;;;;;;;68.32;33.47;;;153.60;2252.80;;;;;;5051185;28;20049;-72
2021/12/06 04:18:53;;;;;;;70.13;34.25;;;153.60;2252.80;;;;;;5051436;28;20060;-72
2021/12/06 04:21:20;;;;;;;86.97;37.28;;;128.90;2252.80;;;;;;5051412;28;20075;-72
2021/12/06 04:23:46;;;;;;;73.03;34.35;;;128.90;2252.80;;;;;;5033992;28;20113;-73
2021/12/06 04:26:12;;;;;;;91.18;38.33;;;128.90;2252.80;;;;;;5051373;28;20052;-73
2021/12/06 04:28:43;;;;;;;85.03;37.30;;;128.80;2252.80;;;;;;5033865;28;20485;-72
2021/12/06 04:31:09;;;;;;;86.00;36.47;;;128.80;2252.80;;;;;;5051331;28;20028;-73
2021/12/06 04:33:35;;;;;;;100.60;40.38;;;128.70;2252.80;;;;;;5055744;28;20025;-72
2021/12/06 04:36:01;;;;;;;108.57;43.75;;;128.70;2252.80;;;;;;5041895;28;20029;-72
2021/12/06 04:38:27;;;;;;;97.88;37.80;;;128.70;2252.80;;;;;;5038700;28;20028;-72
2021/12/06 04:40:53;;;;;;;102.05;40.80;;;128.70;2252.80;;;;;;5059524;28;20108;-72
2021/12/06 04:43:19;;;;;;;77.63;37.42;;;128.60;2252.80;;;;;;5061651;28;20028;-73
2021/12/06 04:45:44;;;;;;;97.13;42.60;;;128.70;2252.80;;;;;;5062405;28;20031;-72
2021/12/06 04:48:10;;;;;;;87.82;38.70;;;128.70;2252.80;;;;;;5032376;28;20029;-71
2021/12/06 04:50:39;;;;;;;93.63;42.05;;;128.70;2252.80;;;;;;5040899;28;20055;-72
2021/12/06 04:53:16;;;;;;;71.43;37.95;;;128.70;2252.80;;;;;;5050110;28;20052;-72
2021/12/06 04:56:03;;;;;;;79.35;38.97;;;128.70;2252.80;;;;;;5051150;28;20036;-72
2021/12/06 04:58:34;;;;;;;72.63;36.97;;;128.60;2252.80;;;;;;5032695;28;20041;-72
2021/12/06 05:01:10;;;;;;;73.75;36.10;;;128.50;2252.80;;;;;;5034794;28;20067;-73
2021/12/06 05:03:39;;;;;;;78.50;39.08;;;128.50;2252.80;;;;;;5056536;28;20033;-72
2021/12/06 05:06:15;;;;;;;79.88;39.33;;;128.60;2252.80;;;;;;5074969;28;20024;-73
2021/12/06 05:08:44;;;;;;;76.95;38.20;;;128.50;2252.80;;;;;;5039449;28;20040;-73
2021/12/06 05:11:11;;;;;;;70.05;36.70;;;128.50;2252.80;;;;;;5060901;28;20052;-73
2021/12/06 05:13:40;;;;;;;78.00;38.28;;;128.60;2252.80;;;;;;5056090;28;20120;-73
2021/12/06 05:16:06;;;;;;;77.75;37.30;;;128.70;2252.80;;;;;;5074431;28;20155;-73
2021/12/06 05:18:31;;;;;;;66.63;33.53;;;128.70;2252.80;;;;;;5045597;28;20454;-73
2021/12/06 05:20:57;;;;;;;71.63;36.00;;;128.60;2252.80;;;;;;5036353;28;20023;-73
2021/12/06 05:23:23;;;;;;;79.53;39.38;;;128.70;2252.80;;;;;;5054616;28;20056;-72
2021/12/06 05:25:49;;;;;;;72.22;35.65;;;128.60;2252.80;;;;;;5054320;28;20017;-72
2021/12/06 05:28:17;;;;;;;66.65;31.02;;;128.70;2252.80;;;;;;5054414;28;20057;-72
2021/12/06 05:30:44;;;;;;;60.95;35.58;;;128.60;2252.80;;;;;;5053898;28;20040;-72
2021/12/06 05:33:17;;;;;;;55.47;31.45;;;128.50;2252.80;;;;;;5052929;28;20035;-72
2021/12/06 05:35:44;;;;;;;71.03;37.83;;;128.50;2252.80;;;;;;5054038;28;20031;-73
2021/12/06 05:38:11;;;;;;;86.82;43.20;;;128.60;2252.80;;;;;;5036032;28;20032;-72
2021/12/06 05:40:37;;;;;;;75.10;37.50;;;128.60;2252.80;;;;;;5053959;28;20783;-72
2021/12/06 05:43:04;;;;;;;61.53;33.90;;;128.60;2252.80;;;;;;5035954;28;20064;-72
2021/12/06 05:45:33;;;;;;;57.75;29.35;;;128.50;2252.80;;;;;;5053768;28;20047;-73
2021/12/06 05:47:59;;;;;;;62.47;35.28;;;128.50;2252.80;;;;;;5035804;28;20029;-73
2021/12/06 05:50:26;;;;;;;51.38;28.85;;;128.40;2252.80;;;;;;5054063;28;20029;-72
2021/12/06 05:52:54;;;;;;;53.95;30.23;;;128.30;2252.80;;;;;;5053866;28;20081;-72
2021/12/06 05:55:23;;;;;;;57.20;33.83;;;128.30;2252.80;;;;;;5053928;28;20029;-72
2021/12/06 05:57:50;;;;;;;50.38;29.02;;;128.40;2252.80;;;;;;5053621;28;20029;-72
2021/12/06 06:00:18;;;;;;;52.97;29.75;;;128.30;2252.80;;;;;;5035276;28;20396;-74
2021/12/06 06:02:46;;;;;;;64.30;33.53;;;128.30;2252.80;;;;;;5046524;28;20094;-73
2021/12/06 06:05:13;;;;;;;59.65;33.38;;;128.30;2252.80;;;;;;5060540;28;20027;-72
2021/12/06 06:07:38;;;;;;;63.95;35.78;;;128.40;2252.80;;;;;;5047009;28;20487;-72
2021/12/06 06:10:05;;;;;;;55.80;28.20;;;128.40;2252.80;;;;;;5043957;28;20031;-72
2021/12/06 06:12:31;;;;;;;58.13;35.78;;;128.40;2252.80;;;;;;5061686;28;20041;-72
2021/12/06 06:14:57;;;;;;;56.70;31.73;;;128.40;2252.80;;;;;;5062832;28;20111;-72
2021/12/06 06:17:23;;;;;;;46.90;27.65;;;128.40;2252.80;;;;;;5058959;28;20053;-72
2021/12/06 06:19:54;;;;;;;53.60;30.95;;;128.40;2252.80;;;;;;5057999;28;20025;-72
2021/12/06 06:22:20;;;;;;;55.28;29.63;;;128.40;2252.80;;;;;;5073121;28;20468;-72
2021/12/06 06:24:46;;;;;;;47.45;25.83;;;128.40;2252.80;;;;;;5057115;28;20013;-72
2021/12/06 06:27:12;;;;;;;41.97;24.55;;;128.50;2252.80;;;;;;5065919;28;20025;-72
2021/12/06 06:29:38;;;;;;;39.67;24.25;;;128.50;2252.80;;;;;;5048183;28;20033;-73
2021/12/06 06:32:06;;;;;;;46.05;26.42;;;128.50;2252.80;;;;;;5052737;28;20107;-72
2021/12/06 06:34:32;;;;;;;44.33;26.00;;;128.50;2252.80;;;;;;5057805;28;20028;-72
2021/12/06 06:36:59;;;;;;;38.42;24.92;;;128.50;2252.80;;;;;;5054506;28;20032;-72
2021/12/06 06:39:25;;;;;;;42.60;24.80;;;128.50;2252.80;;;;;;5069944;28;20036;-72
2021/12/06 06:41:52;;;;;;;41.85;26.60;;;128.40;2252.80;;;;;;5052463;28;20021;-72
2021/12/06 06:44:20;;;;;;;39.90;26.08;;;128.50;2252.80;;;;;;5051702;28;20470;-71
2021/12/06 06:46:47;;;;;;;39.58;24.30;;;128.50;2252.80;;;;;;5050919;28;20037;-71
2021/12/06 06:49:13;;;;;;;37.28;24.25;;;128.50;2252.80;;;;;;5052256;28;20071;-71
2021/12/06 06:51:40;;;;;;;36.00;23.85;;;128.50;2252.80;;;;;;5034427;28;20067;-71
2021/12/06 06:54:06;;;;;;;40.03;26.23;;;128.50;2252.80;;;;;;5034118;28;20119;-71
2021/12/06 06:57:09;;;;;;;43.00;24.80;;;128.40;2252.80;;;;;;5034239;28;20116;-71
2021/12/06 06:59:35;;;;;;;40.15;26.17;;;128.50;2252.80;;;;;;5052209;28;20036;-71
2021/12/06 07:02:01;;;;;;;37.40;24.63;;;128.50;2252.80;;;;;;5043922;28;20054;-72
2021/12/06 07:04:28;;;;;;;38.95;25.00;;;128.30;2252.80;;;;;;5039766;28;20017;-71
2021/12/06 07:06:53;;;;;;;40.97;23.95;;;128.30;2252.80;;;;;;5045394;28;20020;-71
2021/12/06 07:09:19;;;;;;;38.22;23.80;;;128.30;2252.80;;;;;;5052692;28;20020;-72
2021/12/06 07:11:46;;;;;;;40.58;23.92;;;128.20;2252.80;;;;;;5046312;28;20060;-71
2021/12/06 07:14:13;;;;;;;38.35;23.35;;;128.20;2252.80;;;;;;5039693;28;20033;-72
2021/12/06 07:16:40;;;;;;;39.10;24.10;;;128.20;2252.80;;;;;;5045896;28;20033;-72
2021/12/06 07:19:07;;;;;;;44.25;24.63;;;128.20;2252.80;;;;;;5059249;28;20039;-72
2021/12/06 07:21:33;;;;;;;44.97;24.90;;;128.30;2252.80;;;;;;5039826;28;20392;-71
2021/12/06 07:23:59;;;;;;;49.60;26.13;;;128.20;2252.80;;;;;;5039845;28;20511;-71
2021/12/06 07:26:25;;;;;;;43.55;27.20;;;128.20;2252.80;;;;;;5063797;28;20021;-71
2021/12/06 07:28:54;;;;;;;47.55;28.05;;;128.20;2252.80;;;;;;5040226;28;20052;-71
2021/12/06 07:31:22;;;;;;;49.17;27.80;;;128.20;2252.80;;;;;;5044167;28;20043;-71
2021/12/06 07:33:49;;;;;;;49.88;27.60;;;128.20;2252.80;;;;;;5040265;28;20033;-71
2021/12/06 07:36:14;;;;;;;44.92;27.67;;;128.20;2252.80;;;;;;5054595;28;20028;-72
2021/12/06 07:38:42;;;;;;;42.42;25.65;;;128.30;2252.80;;;;;;5038298;28;20721;-72
2021/12/06 07:41:11;;;;;;;48.78;30.20;;;128.30;2252.80;;;;;;5040361;28;20016;-72
2021/12/06 07:43:37;;;;;;;49.42;28.55;;;128.30;2252.80;;;;;;5044614;28;20020;-72
2021/12/06 07:46:04;;;;;;;53.42;30.95;;;128.40;2252.80;;;;;;5063843;28;20020;-72
2021/12/06 07:48:30;;;;;;;51.17;27.75;;;128.40;2252.80;;;;;;5055497;28;20051;-71
2021/12/06 07:50:57;;;;;;;57.45;28.45;;;128.30;2252.80;;;;;;5045671;28;20012;-71
2021/12/06 07:53:23;;;;;;;46.60;27.55;;;128.30;2252.80;;;;;;5047681;28;20091;-71
2021/12/06 07:55:49;;;;;;;54.10;29.88;;;128.30;2252.80;;;;;;5061197;28;20040;-72
2021/12/06 07:58:14;;;;;;;50.13;29.83;;;128.30;2252.80;;;;;;5059962;28;20024;-71
2021/12/06 08:00:44;;;;;;;47.38;26.35;;;128.30;2252.80;;;;;;5055867;28;20064;-72
2021/12/06 08:03:11;;;;;;;47.38;28.55;;;128.30;2252.80;;;;;;5060133;28;20506;-71
2021/12/06 08:05:38;;;;;;;47.65;29.23;;;128.30;2252.80;;;;;;5049202;28;20033;-71
2021/12/06 08:08:12;;;;;;;46.22;27.50;;;128.30;2252.80;;;;;;5044292;28;20017;-72
2021/12/06 08:10:43;;;;;;;52.67;29.52;;;128.20;2252.80;;;;;;5058194;28;20028;-72
2021/12/06 08:13:10;;;;;;;61.72;30.85;;;128.20;2252.80;;;;;;5043518;28;20496;-71
2021/12/06 08:15:36;;;;;;;51.78;30.05;;;128.30;2252.80;;;;;;5056870;28;20155;-72
2021/12/06 08:18:05;;;;;;;60.65;34.15;;;128.20;2252.80;;;;;;5058607;28;20104;-71
2021/12/06 08:20:30;;;;;;;62.50;34.20;;;128.20;2252.80;;;;;;5059782;28;20104;-72
2021/12/06 08:22:56;;;;;;;61.10;35.25;;;128.30;2252.80;;;;;;5063028;28;20143;-72
2021/12/06 08:25:23;;;;;;;56.58;33.10;;;128.30;2252.80;;;;;;5059248;28;20028;-72
2021/12/06 08:27:48;;;;;;;62.10;33.47;;;128.30;2252.80;;;;;;5059823;28;20044;-71
2021/12/06 08:30:16;;;;;;;61.65;33.25;;;128.40;2252.80;;;;;;5042630;28;20032;-72
2021/12/06 08:32:42;;;;;;;61.22;35.08;;;128.40;2252.80;;;;;;5067678;28;20029;-71
2021/12/06 08:35:09;;;;;;;58.97;33.05;;;128.40;2252.80;;;;;;5047626;28;20039;-71
2021/12/06 08:37:35;;;;;;;60.63;33.83;;;128.40;2252.80;;;;;;5059770;28;20032;-71
2021/12/06 08:40:00;;;;;;;62.45;36.05;;;128.30;2252.80;;;;;;5062501;28;20032;-71
2021/12/06 08:42:26;;;;;;;79.47;39.50;;;128.40;2252.80;;;;;;5056820;28;20029;-71
2021/12/06 08:44:52;;;;;;;67.30;40.78;;;128.40;2252.80;;;;;;5061380;28;20096;-72
2021/12/06 08:47:18;;;;;;;72.40;39.88;;;128.40;2252.80;;;;;;5066229;28;20044;-71
2021/12/06 08:49:45;;;;;;;68.18;41.25;;;128.40;2252.80;;;;;;5065402;28;20513;-72
2021/12/06 08:52:11;;;;;;;71.95;39.47;;;128.30;2252.80;;;;;;5055847;28;20071;-71
2021/12/06 08:54:37;;;;;;;69.72;39.20;;;128.30;2252.80;;;;;;5040424;28;20088;-71
2021/12/06 08:57:04;;;;;;;61.33;33.10;;;128.30;2252.80;;;;;;5054535;28;20055;-71
2021/12/06 08:59:30;;;;;;;62.17;36.78;;;128.30;2252.80;;;;;;5036994;28;20082;-71
2021/12/06 09:01:57;;;;;;;63.33;35.72;;;128.40;2252.80;;;;;;5036122;28;20045;-71
2021/12/06 09:04:25;;;;;;;50.30;29.13;;;128.40;2252.80;;;;;;5053451;28;20032;-70
2021/12/06 09:06:53;;;;;;;44.00;26.08;;;128.40;2252.80;;;;;;5036485;28;20199;-71
2021/12/06 09:09:21;;;;;;;47.90;25.58;;;128.40;2252.80;;;;;;5054002;28;20021;-71
2021/12/06 09:11:48;;;;;;;40.67;24.70;;;128.40;2252.80;;;;;;5032520;28;20428;-71
2021/12/06 09:14:15;;;;;;;37.80;23.67;;;128.40;2252.80;;;;;;5047115;28;20115;-70
2021/12/06 09:16:41;;;;;;;31.55;21.30;;;128.30;2252.80;;;;;;5054561;28;20483;-71
2021/12/06 09:19:09;;;;;;;42.45;23.58;;;128.40;2252.80;;;;;;5051386;28;20082;-71
2021/12/06 09:21:37;;;;;;;45.13;23.00;;;128.50;2252.80;;;;;;5046889;28;20026;-70
2021/12/06 09:24:08;;;;;;;43.60;28.02;;;128.50;2252.80;;;;;;5045811;28;20040;-71
2021/12/06 09:26:34;;;;;;;46.97;28.95;;;128.50;2252.80;;;;;;5053737;28;20021;-71
2021/12/06 09:29:00;;;;;;;38.22;25.75;;;128.40;2252.80;;;;;;5046280;28;20083;-71
2021/12/06 09:31:27;;;;;;;40.08;25.38;;;128.30;2252.80;;;;;;5048065;28;20029;-71
2021/12/06 09:33:53;;;;;;;37.10;23.73;;;128.30;2252.80;;;;;;5053916;28;20475;-70
2021/12/06 09:36:20;;;;;;;36.50;24.60;;;128.30;2252.80;;;;;;5035614;28;20029;-70
2021/12/06 09:38:46;;;;;;;36.85;23.63;;;128.40;2252.80;;;;;;5053712;28;20109;-70
2021/12/06 09:41:21;;;;;;;33.08;21.25;;;128.40;2252.80;;;;;;5053562;28;20112;-70
2021/12/06 09:43:48;;;;;;;35.08;20.73;;;128.20;2252.80;;;;;;5047181;28;20035;-71
2021/12/06 09:46:14;;;;;;;33.53;22.08;;;128.20;2252.80;;;;;;5035484;28;20067;-71
2021/12/06 09:48:42;;;;;;;33.38;22.83;;;128.20;2252.80;;;;;;5050115;28;20383;-71
2021/12/06 09:51:12;;;;;;;33.42;21.88;;;128.20;2252.80;;;;;;5048791;28;20025;-71
2021/12/06 09:53:40;;;;;;;35.53;23.52;;;128.30;2252.80;;;;;;5052618;28;20403;-71
2021/12/06 09:56:12;;;;;;;35.78;23.48;;;128.30;2252.80;;;;;;5053588;28;20424;-71
2021/12/06 09:58:38;;;;;;;31.88;22.05;;;128.30;2252.80;;;;;;5052692;28;20064;-72
2021/12/06 10:01:15;;;;;;;37.75;24.10;;;128.20;2252.80;;;;;;5052990;28;20131;-72
2021/12/06 10:03:41;;;;;;;37.47;22.77;;;128.20;2252.80;;;;;;5034755;28;20045;-71
2021/12/06 10:06:07;;;;;;;40.08;25.65;;;128.10;2252.80;;;;;;5052295;28;20033;-72
2021/12/06 10:08:37;;;;;;;43.15;26.88;;;128.20;2252.80;;;;;;5052833;28;20537;-71
2021/12/06 10:11:05;;;;;;;37.22;24.08;;;128.20;2252.80;;;;;;5046009;28;20469;-71
2021/12/06 10:13:31;;;;;;;38.10;24.55;;;128.20;2252.80;;;;;;5045490;28;20026;-74
2021/12/06 10:15:57;;;;;;;40.45;26.30;;;128.10;2252.80;;;;;;5047816;28;20032;-73
2021/12/06 10:18:23;;;;;;;41.20;25.17;;;128.10;2252.80;;;;;;5032442;28;20388;-72
2021/12/06 10:20:50;;;;;;;38.53;24.58;;;128.10;2252.80;;;;;;5034472;28;20040;-72
2021/12/06 10:23:19;;;;;;;40.80;27.65;;;128.10;2252.80;;;;;;5031763;28;20028;-73
2021/12/06 10:25:49;;;;;;;41.83;27.85;;;128.10;2252.80;;;;;;5047051;28;20028;-73
2021/12/06 10:28:16;;;;;;;38.42;24.05;;;128.20;2252.80;;;;;;5038549;28;20022;-73
2021/12/06 10:30:56;;;;;;;41.00;24.40;;;128.20;2252.80;;;;;;5041654;28;20025;-71
2021/12/06 10:33:26;;;;;;;42.17;26.35;;;128.20;2252.80;;;;;;5028542;28;20041;-71
2021/12/06 10:36:00;;;;;;;44.65;26.73;;;128.20;2252.80;;;;;;5035648;28;20029;-71
2021/12/06 10:38:29;;;;;;;41.83;25.50;;;128.20;2252.80;;;;;;5044766;28;20088;-71
2021/12/06 10:41:20;;;;;;;37.65;25.30;;;128.30;2252.80;;;;;;5052205;28;20486;-71
2021/12/06 10:43:57;;;;;;;41.35;26.52;;;128.40;2252.80;;;;;;5038950;28;20082;-71
2021/12/06 10:46:24;;;;;;;44.22;26.55;;;128.30;2252.80;;;;;;5043883;28;20025;-71
2021/12/06 10:48:53;;;;;;;43.35;27.60;;;128.30;2252.80;;;;;;5034263;28;20025;-71
2021/12/06 10:51:20;;;;;;;44.00;27.08;;;128.20;2252.80;;;;;;5052644;28;20087;-72
2021/12/06 10:53:57;;;;;;;44.58;25.13;;;128.30;2252.80;;;;;;5040149;28;20021;-71
2021/12/06 10:56:36;;;;;;;36.20;24.15;;;128.40;2252.80;;;;;;5040696;28;20021;-71
2021/12/06 10:59:05;;;;;;;39.33;24.15;;;128.50;2252.80;;;;;;5044840;28;20056;-71
2021/12/06 11:01:32;;;;;;;39.42;25.20;;;128.50;2252.80;;;;;;5030918;28;20072;-71
2021/12/06 11:04:01;;;;;;;38.00;25.00;;;128.50;2252.80;;;;;;5031655;28;20037;-72
2021/12/06 11:06:44;;;;;;;40.55;25.85;;;128.60;2252.80;;;;;;5045458;28;20083;-72
2021/12/06 11:09:20;;;;;;;38.20;25.08;;;128.60;2252.80;;;;;;5046737;28;20104;-72
2021/12/06 11:11:51;;;;;;;44.22;26.20;;;128.60;2252.80;;;;;;5038093;28;20024;-73
2021/12/06 11:14:48;;;;;;;39.40;25.75;;;128.60;2252.80;;;;;;5052059;28;20025;-72
2021/12/06 11:17:18;;;;;;;36.03;22.60;;;128.50;2252.80;;;;;;5047231;28;20127;-72
2021/12/06 11:19:45;;;;;;;39.55;24.95;;;128.60;2252.80;;;;;;5038122;28;20025;-72
2021/12/06 11:22:20;;;;;;;41.03;24.05;;;128.70;2252.80;;;;;;5028556;28;20040;-73
2021/12/06 11:24:51;;;;;;;40.78;25.17;;;128.70;2252.80;;;;;;5043060;28;20036;-72
2021/12/06 11:27:23;;;;;;;41.80;25.83;;;128.80;2252.80;;;;;;5043804;28;20366;-73
2021/12/06 11:30:05;;;;;;;41.78;23.95;;;128.80;2252.80;;;;;;5024589;28;20029;-74
2021/12/06 11:32:43;;;;;;;42.95;25.80;;;128.80;2252.80;;;;;;5032057;28;20038;-73
2021/12/06 11:35:17;;;;;;;44.95;26.73;;;128.60;2252.80;;;;;;5022606;28;20040;-73
2021/12/06 11:37:52;;;;;;;40.20;24.63;;;128.70;2252.80;;;;;;5030637;28;20030;-72
2021/12/06 11:40:46;;;;;;;46.10;29.05;;;128.80;2252.80;;;;;;5050225;28;20147;-73
2021/12/06 11:43:16;;;;;;;46.80;30.23;;;128.90;2252.80;;;;;;5033323;28;20246;-73
2021/12/06 11:45:52;;;;;;;43.20;26.50;;;128.90;2252.80;;;;;;5048792;28;20021;-73
2021/12/06 11:48:20;;;;;;;42.80;27.10;;;128.80;2252.80;;;;;;5040605;28;20060;-72
2021/12/06 11:50:52;;;;;;;47.40;27.35;;;128.80;2252.80;;;;;;5051950;28;20570;-72
2021/12/06 11:53:22;;;;;;;44.83;27.13;;;128.80;2252.80;;;;;;5033736;28;20039;-72
2021/12/06 11:55:58;;;;;;;49.65;29.00;;;128.80;2252.80;;;;;;5051950;28;20104;-72
2021/12/06 11:58:40;;;;;;;46.38;28.17;;;128.90;2252.80;;;;;;5033924;28;20021;-72
2021/12/06 12:01:27;;;;;;;52.28;29.30;;;128.80;2252.80;;;;;;5051340;28;20491;-72
2021/12/06 12:03:56;;;;;;;46.35;28.45;;;128.80;2252.80;;;;;;5034147;28;20052;-72
2021/12/06 12:06:28;;;;;;;44.63;26.98;;;128.90;2252.80;;;;;;5033619;28;20033;-72
2021/12/06 12:09:19;;;;;;;46.75;30.00;;;128.80;2252.80;;;;;;5051525;28;20017;-72
2021/12/06 12:12:02;;;;;;;47.92;28.42;;;128.70;2252.80;;;;;;5055298;28;20029;-72
2021/12/06 12:14:36;;;;;;;52.67;30.33;;;128.70;2252.80;;;;;;5038025;28;20379;-72
2021/12/06 12:17:07;;;;;;;51.30;30.73;;;128.80;2252.80;;;;;;5037548;28;20514;-72
2021/12/06 12:19:33;;;;;;;50.42;28.27;;;128.80;2252.80;;;;;;5055756;28;20051;-72
2021/12/06 12:21:59;;;;;;;53.88;31.52;;;128.80;2252.80;;;;;;5055253;28;20075;-72